Loomis, Nebraska
Current Conditions -  °F | °C
As of 6:15 PM on Friday 28 Nov 2014 (Local Time) from KHDE Reporting Station
Clear Clear  
Wind Chill: 58°   Ceiling: Unl
Heat Index: 58°   Visibility: 10mi
Dew Point: 14°   Wind: 10mph
Humidity: 17%   Direction: 270°W
Pressure: 29.69"   Gusts: NA
Location:  40.48°N, 99.51°W
Report Text: KHDE 290015Z AUTO 27009KT 10SM CLR 15/M10 A2969 RMK AO2 T01461102
Loading
Personal Weather Stations






























Interactive Weather Map New forecast layout! Learn more

10-Day Weather Forecast

Advertisements
Track Severe Weather on mobile